createdAt,value
2023-04-15T00:01:46.831Z,5.36
2023-04-15T00:04:13.344Z,5.38
2023-04-15T00:06:54.920Z,5.33
2023-04-15T00:09:21.722Z,5.35
2023-04-15T00:11:48.163Z,5.26
2023-04-15T00:14:14.569Z,5.16
2023-04-15T00:16:41.316Z,5.08
2023-04-15T00:19:07.713Z,5.13
2023-04-15T00:21:34.056Z,5.14
2023-04-15T00:24:01.106Z,5.12
2023-04-15T00:26:27.841Z,5.04
2023-04-15T00:28:54.281Z,4.97
2023-04-15T00:31:20.940Z,4.85
2023-04-15T00:33:47.834Z,4.79
2023-04-15T00:36:14.557Z,4.84
2023-04-15T00:38:41.345Z,4.80
2023-04-15T00:41:09.002Z,4.74
2023-04-15T00:43:35.659Z,4.68
2023-04-15T00:46:04.802Z,4.71
2023-04-15T00:48:32.201Z,4.60
2023-04-15T00:50:59.095Z,4.65
2023-04-15T00:53:25.784Z,4.64
2023-04-15T00:55:52.597Z,4.57
2023-04-15T00:58:19.198Z,4.56
2023-04-15T01:00:46.142Z,4.60
2023-04-15T01:03:12.692Z,4.64
2023-04-15T01:05:39.420Z,4.67
2023-04-15T01:08:06.155Z,4.70
2023-04-15T01:10:33.374Z,4.75
2023-04-15T01:13:00.076Z,4.76
2023-04-15T01:15:26.559Z,4.77
2023-04-15T01:17:53.102Z,4.80
2023-04-15T01:20:20.228Z,4.91
2023-04-15T01:22:46.616Z,4.99
2023-04-15T01:25:18.567Z,4.91
2023-04-15T01:27:45.265Z,4.80
2023-04-15T01:30:12.109Z,4.76
2023-04-15T01:32:38.579Z,4.73
2023-04-15T01:35:05.373Z,4.70
2023-04-15T01:37:32.545Z,4.61
2023-04-15T01:39:58.940Z,4.48
2023-04-15T01:42:25.308Z,4.37
2023-04-15T01:44:51.955Z,4.30
2023-04-15T01:47:18.619Z,4.23
2023-04-15T01:49:44.952Z,4.27
2023-04-15T01:52:11.273Z,4.14
2023-04-15T01:54:37.684Z,4.05
2023-04-15T01:57:05.530Z,4.03
2023-04-15T01:59:32.065Z,4.00
2023-04-15T02:01:58.737Z,3.97
2023-04-15T02:04:25.086Z,4.02
2023-04-15T02:06:51.501Z,4.03
2023-04-15T02:09:17.813Z,4.03
2023-04-15T02:11:44.800Z,3.96
2023-04-15T02:14:11.126Z,4.00
2023-04-15T02:16:37.671Z,4.03
2023-04-15T02:19:04.352Z,4.04
2023-04-15T02:21:30.797Z,4.02
2023-04-15T02:23:57.492Z,4.02
2023-04-15T02:26:25.230Z,3.99
2023-04-15T02:28:51.690Z,4.01
2023-04-15T02:31:18.170Z,3.99
2023-04-15T02:33:44.778Z,3.90
2023-04-15T02:36:12.347Z,3.93
2023-04-15T02:38:40.673Z,3.91
2023-04-15T02:41:07.036Z,3.85
2023-04-15T02:43:33.431Z,3.76
2023-04-15T02:45:59.863Z,3.82
2023-04-15T02:48:26.207Z,3.76
2023-04-15T02:50:52.946Z,3.74
2023-04-15T02:53:19.913Z,3.73
2023-04-15T02:55:46.464Z,3.70
2023-04-15T02:58:12.861Z,3.68
2023-04-15T03:00:39.175Z,3.62
2023-04-15T03:03:06.428Z,3.64
2023-04-15T03:05:33.288Z,3.62
2023-04-15T03:08:01.020Z,3.57
2023-04-15T03:10:27.365Z,3.64
2023-04-15T03:12:53.917Z,3.44
2023-04-15T03:15:20.304Z,3.50
2023-04-15T03:17:48.036Z,3.46
2023-04-15T03:20:14.513Z,3.27
2023-04-15T03:22:40.957Z,3.30
2023-04-15T03:25:07.632Z,3.31
2023-04-15T03:27:34.019Z,3.32
2023-04-15T03:30:00.548Z,3.30
2023-04-15T03:32:27.175Z,3.30
2023-04-15T03:34:53.549Z,3.29
2023-04-15T03:37:19.883Z,3.30
2023-04-15T03:39:46.749Z,3.32
2023-04-15T03:42:13.081Z,3.28
2023-04-15T03:44:39.441Z,3.22
2023-04-15T03:47:06.027Z,3.24
2023-04-15T03:49:32.447Z,3.26
2023-04-15T03:51:59.624Z,3.22
2023-04-15T03:54:25.958Z,3.30
2023-04-15T03:56:52.332Z,3.25
2023-04-15T03:59:18.677Z,3.26
2023-04-15T04:01:45.074Z,3.25
2023-04-15T04:04:11.607Z,3.31
2023-04-15T04:06:38.098Z,3.30
2023-04-15T04:09:04.459Z,3.31
2023-04-15T04:11:31.642Z,3.32
2023-04-15T04:13:57.987Z,3.27
2023-04-15T04:16:24.545Z,3.28
2023-04-15T04:18:51.231Z,3.36
2023-04-15T04:21:17.668Z,3.40
2023-04-15T04:23:44.021Z,3.44
2023-04-15T04:26:10.490Z,3.42
2023-04-15T04:28:36.878Z,3.40
2023-04-15T04:31:03.320Z,3.33
2023-04-15T04:33:29.814Z,3.28
2023-04-15T04:35:56.155Z,3.28
2023-04-15T04:38:22.496Z,3.24
2023-04-15T04:40:48.827Z,3.24
2023-04-15T04:43:15.922Z,3.31
2023-04-15T04:45:42.799Z,3.25
2023-04-15T04:48:10.445Z,3.22
2023-04-15T04:50:36.984Z,3.29
2023-04-15T04:53:03.408Z,3.36
2023-04-15T04:55:30.125Z,3.37
2023-04-15T04:57:56.667Z,3.36
2023-04-15T05:00:23.123Z,3.32
2023-04-15T05:02:49.690Z,3.30
2023-04-15T05:05:16.234Z,3.28
2023-04-15T05:07:42.632Z,3.25
2023-04-15T05:10:09.419Z,3.18
2023-04-15T05:12:37.393Z,3.13
2023-04-15T05:15:05.229Z,3.10
2023-04-15T05:17:33.280Z,3.14
2023-04-15T05:19:59.642Z,3.19
2023-04-15T05:22:26.176Z,3.21
2023-04-15T05:24:52.553Z,3.17
2023-04-15T05:27:19.175Z,3.09
2023-04-15T05:29:46.077Z,3.07
2023-04-15T05:32:12.514Z,3.11
2023-04-15T05:34:38.866Z,3.13
2023-04-15T05:37:05.157Z,3.11
2023-04-15T05:39:32.647Z,3.14
2023-04-15T05:41:59.832Z,3.15
2023-04-15T05:44:26.936Z,3.16
2023-04-15T05:46:53.339Z,3.16
2023-04-15T05:49:19.639Z,3.18
2023-04-15T05:51:47.558Z,3.14
2023-04-15T05:54:13.896Z,3.17
2023-04-15T05:56:40.459Z,3.20
2023-04-15T05:59:07.476Z,3.17
2023-04-15T06:01:34.769Z,3.17
2023-04-15T06:04:01.781Z,3.25
2023-04-15T06:06:28.516Z,3.27
2023-04-15T06:08:55.820Z,3.30
2023-04-15T06:11:22.416Z,3.35
2023-04-15T06:13:48.897Z,3.33
2023-04-15T06:16:15.652Z,3.37
2023-04-15T06:18:42.095Z,3.45
2023-04-15T06:21:08.501Z,3.51
2023-04-15T06:23:36.209Z,3.63
2023-04-15T06:26:03.629Z,3.72
2023-04-15T06:28:30.018Z,3.88
2023-04-15T06:30:56.553Z,3.99
2023-04-15T06:33:22.917Z,4.01
2023-04-15T06:35:49.656Z,4.06
2023-04-15T06:38:16.417Z,4.14
2023-04-15T06:40:42.955Z,4.20
2023-04-15T06:43:09.327Z,4.24
2023-04-15T06:45:35.772Z,4.37
2023-04-15T06:48:02.162Z,4.55
2023-04-15T06:50:28.563Z,4.66
2023-04-15T06:52:56.146Z,4.84
2023-04-15T06:55:22.707Z,5.03
2023-04-15T06:57:49.110Z,5.19
2023-04-15T07:00:15.655Z,5.40
2023-04-15T07:02:42.146Z,5.60
2023-04-15T07:05:08.834Z,5.85
2023-04-15T07:07:36.102Z,6.14
2023-04-15T07:10:03.368Z,6.14
2023-04-15T07:12:29.793Z,6.37
2023-04-15T07:14:56.214Z,6.58
2023-04-15T07:17:22.595Z,6.79
2023-04-15T07:19:49.265Z,6.95
2023-04-15T07:22:15.948Z,7.11
2023-04-15T07:24:42.522Z,7.27
2023-04-15T07:27:08.929Z,7.38
2023-04-15T07:29:35.371Z,7.73
2023-04-15T07:32:01.769Z,7.92
2023-04-15T07:34:29.268Z,8.02
2023-04-15T07:36:57.180Z,8.02
2023-04-15T07:39:23.514Z,8.15
2023-04-15T07:41:50.015Z,8.36
2023-04-15T07:44:16.644Z,8.55
2023-04-15T07:46:43.191Z,8.75
2023-04-15T07:49:09.634Z,8.96
2023-04-15T07:51:36.097Z,9.07
2023-04-15T07:54:03.140Z,9.15
2023-04-15T07:56:29.690Z,9.18
2023-04-15T07:58:56.076Z,9.29
2023-04-15T08:01:22.685Z,9.54
2023-04-15T08:03:49.239Z,9.57
2023-04-15T08:06:15.828Z,9.69
2023-04-15T08:08:43.079Z,9.92
2023-04-15T08:11:09.650Z,10.16
2023-04-15T08:13:35.989Z,10.30
2023-04-15T08:16:18.829Z,10.55
2023-04-15T08:18:47.215Z,10.79
2023-04-15T08:21:14.012Z,10.99
2023-04-15T08:23:40.872Z,10.95
2023-04-15T08:26:08.589Z,11.15
2023-04-15T08:28:35.040Z,11.27
2023-04-15T08:31:01.676Z,11.53
2023-04-15T08:33:28.868Z,11.35
2023-04-15T08:35:55.244Z,11.64
2023-04-15T08:38:21.581Z,11.62
2023-04-15T08:40:48.053Z,11.76
2023-04-15T08:43:26.921Z,12.00
2023-04-15T08:45:53.436Z,12.29
2023-04-15T08:48:20.485Z,12.42
2023-04-15T08:50:47.818Z,12.28
2023-04-15T08:53:15.486Z,12.31
2023-04-15T08:55:45.645Z,12.56
2023-04-15T08:58:15.608Z,12.68
2023-04-15T09:00:42.536Z,12.80
2023-04-15T09:03:09.631Z,13.16
2023-04-15T09:05:37.205Z,13.08
2023-04-15T09:08:04.704Z,12.99
2023-04-15T09:10:32.661Z,13.21
2023-04-15T09:12:59.452Z,13.30
2023-04-15T09:15:27.574Z,13.22
2023-04-15T09:17:54.180Z,13.23
2023-04-15T09:20:20.937Z,13.42
2023-04-15T09:22:48.925Z,13.47
2023-04-15T09:25:15.180Z,13.55
2023-04-15T09:27:49.478Z,13.59
2023-04-15T09:30:16.663Z,13.50
2023-04-15T09:32:50.067Z,13.36
2023-04-15T09:35:16.847Z,13.59
2023-04-15T09:37:43.204Z,13.59
2023-04-15T09:40:10.115Z,13.57
2023-04-15T09:42:37.642Z,13.40
2023-04-15T09:45:13.152Z,13.20
2023-04-15T09:47:39.458Z,13.61
2023-04-15T09:50:06.211Z,14.04
2023-04-15T09:52:32.666Z,13.81
2023-04-15T09:55:00.144Z,13.95
2023-04-15T09:57:38.424Z,14.22
2023-04-15T10:00:08.003Z,14.17
2023-04-15T10:02:35.455Z,14.10
2023-04-15T10:05:03.154Z,14.21
2023-04-15T10:07:29.709Z,13.91
2023-04-15T10:09:57.104Z,14.01
2023-04-15T10:12:23.585Z,14.36
2023-04-15T10:14:59.302Z,14.17
2023-04-15T10:17:31.197Z,14.21
2023-04-15T10:20:00.468Z,14.16
2023-04-15T10:22:28.098Z,14.43
2023-04-15T10:24:56.146Z,14.32
2023-04-15T10:27:23.353Z,14.29
2023-04-15T10:29:50.891Z,14.54
2023-04-15T10:32:21.799Z,14.54
2023-04-15T10:34:49.555Z,14.67
2023-04-15T10:37:22.769Z,14.72
2023-04-15T10:39:49.484Z,14.93
2023-04-15T10:42:17.669Z,14.71
2023-04-15T10:44:51.474Z,14.68
2023-04-15T10:47:20.334Z,14.61
2023-04-15T10:49:52.639Z,14.52
2023-04-15T10:52:24.185Z,14.30
2023-04-15T10:54:50.689Z,14.23
2023-04-15T10:57:22.531Z,14.17
2023-04-15T10:59:58.654Z,14.08
2023-04-15T11:02:58.912Z,14.02
2023-04-15T11:05:44.212Z,13.79
2023-04-15T11:08:11.214Z,13.61
2023-04-15T11:10:37.482Z,13.62
2023-04-15T11:13:14.695Z,13.51
2023-04-15T11:15:42.922Z,13.47
2023-04-15T11:18:17.774Z,13.57
2023-04-15T11:20:50.628Z,13.50
2023-04-15T11:23:28.692Z,13.59
2023-04-15T11:25:57.113Z,13.63
2023-04-15T11:28:27.582Z,13.64
2023-04-15T11:30:55.763Z,13.53
2023-04-15T11:33:23.861Z,13.64
2023-04-15T11:35:52.684Z,13.73
2023-04-15T11:38:19.388Z,13.64
2023-04-15T11:40:47.247Z,13.54
2023-04-15T11:43:20.255Z,13.68
2023-04-15T11:45:54.150Z,13.79
2023-04-15T11:48:23.437Z,13.84
2023-04-15T11:50:54.956Z,13.81
2023-04-15T11:53:21.653Z,13.86
2023-04-15T11:55:50.436Z,13.91
2023-04-15T11:58:16.954Z,13.92
2023-04-15T12:00:54.155Z,13.96
2023-04-15T12:03:26.012Z,13.86
2023-04-15T12:06:12.674Z,13.74
2023-04-15T12:09:04.626Z,13.73
2023-04-15T12:11:38.277Z,13.76
2023-04-15T12:14:24.397Z,13.65
2023-04-15T12:16:54.129Z,13.54
2023-04-15T12:19:26.358Z,13.44
2023-04-15T12:21:59.968Z,13.39
2023-04-15T12:24:26.868Z,13.33
2023-04-15T12:26:57.974Z,13.21
2023-04-15T12:29:29.060Z,13.21
2023-04-15T12:32:11.118Z,13.13
2023-04-15T12:34:40.399Z,13.18
2023-04-15T12:37:12.168Z,13.12
2023-04-15T12:39:40.962Z,13.10
2023-04-15T12:42:08.747Z,13.16
2023-04-15T12:44:36.227Z,13.24
2023-04-15T12:47:03.476Z,13.29
2023-04-15T12:49:31.039Z,13.18
2023-04-15T12:52:01.879Z,13.06
2023-04-15T12:54:29.555Z,13.02
2023-04-15T12:56:56.645Z,13.29
2023-04-15T13:01:51.935Z,13.64
2023-04-15T13:04:19.386Z,13.78
2023-04-15T13:06:45.947Z,13.73
2023-04-15T13:09:12.298Z,13.82
2023-04-15T13:11:38.739Z,13.69
2023-04-15T13:14:07.122Z,13.51
2023-04-15T13:16:34.504Z,13.39
2023-04-15T13:19:02.288Z,13.34
2023-04-15T13:21:28.844Z,13.29
2023-04-15T13:23:55.629Z,13.36
2023-04-15T13:26:22.130Z,13.11
2023-04-15T13:28:48.511Z,13.03
2023-04-15T13:31:15.029Z,12.87
2023-04-15T13:33:41.456Z,12.65
2023-04-15T13:36:08.306Z,12.78
2023-04-15T13:38:34.943Z,12.90
2023-04-15T13:41:01.465Z,12.84
2023-04-15T13:43:27.876Z,12.62
2023-04-15T13:45:54.351Z,12.32
2023-04-15T13:48:20.801Z,12.09
2023-04-15T13:50:47.125Z,11.97
2023-04-15T13:53:15.419Z,11.83
2023-04-15T13:55:42.722Z,11.71
2023-04-15T13:58:09.962Z,11.48
2023-04-15T14:00:36.395Z,11.49
2023-04-15T14:03:02.930Z,11.49
2023-04-15T14:05:29.472Z,11.39
2023-04-15T14:07:55.800Z,11.20
2023-04-15T14:10:22.137Z,11.08
2023-04-15T14:12:48.517Z,11.01
2023-04-15T14:15:15.013Z,10.97
2023-04-15T14:17:42.461Z,10.88
2023-04-15T14:20:09.742Z,10.74
2023-04-15T14:22:36.266Z,10.70
2023-04-15T14:25:02.813Z,10.64
2023-04-15T14:27:29.181Z,10.48
2023-04-15T14:29:55.629Z,10.58
2023-04-15T14:32:21.991Z,10.60
2023-04-15T14:34:48.352Z,10.61
2023-04-15T14:37:14.799Z,10.56
2023-04-15T14:39:41.217Z,10.43
2023-04-15T14:42:07.765Z,10.41
2023-04-15T14:44:34.197Z,10.44
2023-04-15T14:47:00.772Z,10.51
2023-04-15T14:49:27.249Z,10.43
2023-04-15T14:51:53.577Z,10.42
2023-04-15T14:54:21.898Z,10.39
2023-04-15T14:56:48.719Z,10.37
2023-04-15T14:59:15.267Z,10.38
2023-04-15T15:01:41.679Z,10.43
2023-04-15T15:04:10.260Z,10.37
2023-04-15T15:06:36.740Z,10.31
2023-04-15T15:09:03.660Z,10.35
2023-04-15T15:11:30.325Z,10.32
2023-04-15T15:13:57.005Z,10.31
2023-04-15T15:16:23.510Z,10.24
2023-04-15T15:18:51.197Z,10.22
2023-04-15T15:21:17.940Z,10.08
2023-04-15T15:23:44.830Z,10.14
2023-04-15T15:26:12.267Z,10.04
2023-04-15T15:28:38.667Z,9.95
2023-04-15T15:31:05.484Z,9.93
2023-04-15T15:33:31.948Z,9.86
2023-04-15T15:35:58.711Z,9.82
2023-04-15T15:38:25.079Z,9.90
2023-04-15T15:40:52.038Z,9.81
2023-04-15T15:43:18.492Z,9.75
2023-04-15T15:45:45.293Z,9.71
2023-04-15T15:48:11.735Z,9.69
2023-04-15T15:50:38.105Z,9.69
2023-04-15T15:53:04.460Z,9.64
2023-04-15T15:55:30.796Z,9.67
2023-04-15T15:57:57.102Z,9.64
2023-04-15T16:00:23.497Z,9.66
2023-04-15T16:03:06.228Z,9.58
2023-04-15T16:05:34.730Z,9.58
2023-04-15T16:08:01.124Z,9.54
2023-04-15T16:10:27.930Z,9.55
2023-04-15T16:12:54.941Z,9.57
2023-04-15T16:15:26.122Z,9.48
2023-04-15T16:17:52.599Z,9.53
2023-04-15T16:20:19.012Z,9.57
2023-04-15T16:22:45.438Z,9.52
2023-04-15T16:25:11.918Z,9.47
2023-04-15T16:30:08.793Z,9.39
2023-04-15T16:32:35.953Z,9.35
2023-04-15T16:35:03.243Z,9.32
2023-04-15T16:37:29.569Z,9.33
2023-04-15T16:39:55.873Z,9.33
2023-04-15T16:42:22.181Z,9.30
2023-04-15T16:44:48.557Z,9.25
2023-04-15T16:47:15.007Z,9.17
2023-04-15T16:49:41.359Z,9.20
2023-04-15T16:52:07.942Z,9.11
2023-04-15T16:54:36.477Z,9.13
2023-04-15T16:57:03.351Z,9.09
2023-04-15T16:59:29.716Z,9.06
2023-04-15T17:01:56.216Z,9.17
2023-04-15T17:04:22.790Z,9.15
2023-04-15T17:06:49.260Z,9.05
2023-04-15T17:09:15.816Z,8.98
2023-04-15T17:11:44.319Z,9.07
2023-04-15T17:14:10.854Z,8.96
2023-04-15T17:16:37.533Z,9.04
2023-04-15T17:19:04.103Z,8.98
2023-04-15T17:21:31.732Z,9.05
2023-04-15T17:23:58.126Z,9.13
2023-04-15T17:26:24.792Z,9.04
2023-04-15T17:28:51.184Z,9.07
2023-04-15T17:31:17.780Z,8.94
2023-04-15T17:34:00.277Z,8.99
2023-04-15T17:36:31.577Z,8.91
2023-04-15T17:38:58.018Z,8.91
2023-04-15T17:41:24.670Z,8.90
2023-04-15T17:43:51.105Z,8.84
2023-04-15T17:46:19.078Z,8.94
2023-04-15T17:48:46.406Z,8.86
2023-04-15T17:51:13.225Z,8.82
2023-04-15T17:53:39.605Z,8.87
2023-04-15T17:56:06.018Z,8.90
2023-04-15T17:58:32.381Z,8.81
2023-04-15T18:00:58.783Z,8.93
2023-04-15T18:03:26.703Z,8.86
2023-04-15T18:05:53.293Z,8.94
2023-04-15T18:08:19.892Z,8.95
2023-04-15T18:10:46.297Z,9.02
2023-04-15T18:13:12.602Z,8.96
2023-04-15T18:15:39.130Z,9.02
2023-04-15T18:18:05.647Z,8.98
2023-04-15T18:20:33.397Z,8.93
2023-04-15T18:22:59.715Z,8.89
2023-04-15T18:25:26.308Z,8.78
2023-04-15T18:27:52.720Z,8.87
2023-04-15T18:30:19.112Z,8.85
2023-04-15T18:32:45.520Z,8.79
2023-04-15T18:35:11.991Z,8.78
2023-04-15T18:37:38.415Z,8.79
2023-04-15T18:40:07.756Z,8.83
2023-04-15T18:42:34.072Z,8.78
2023-04-15T18:45:00.767Z,8.84
2023-04-15T18:47:27.778Z,8.86
2023-04-15T18:49:54.272Z,8.88
2023-04-15T18:52:21.448Z,8.81
2023-04-15T18:54:47.794Z,8.81
2023-04-15T18:57:14.160Z,8.89
2023-04-15T18:59:46.912Z,8.83
2023-04-15T19:02:13.325Z,8.76
2023-04-15T19:04:39.682Z,8.72
2023-04-15T19:07:07.241Z,8.85
2023-04-15T19:09:33.945Z,8.84
2023-04-15T19:12:00.286Z,8.75
2023-04-15T19:14:26.856Z,8.84
2023-04-15T19:16:53.250Z,8.72
2023-04-15T19:19:19.741Z,8.81
2023-04-15T19:21:50.034Z,8.77
2023-04-15T19:24:17.909Z,8.75
2023-04-15T19:26:47.116Z,8.69
2023-04-15T19:29:13.474Z,8.73
2023-04-15T19:31:39.981Z,8.69
2023-04-15T19:34:06.622Z,8.73
2023-04-15T19:36:33.240Z,8.84
2023-04-15T19:39:01.150Z,8.87
2023-04-15T19:41:27.675Z,8.78
2023-04-15T19:43:54.078Z,8.88
2023-04-15T19:46:20.595Z,8.77
2023-04-15T19:48:47.091Z,8.81
2023-04-15T19:51:13.452Z,8.88
2023-04-15T19:53:40.636Z,8.86
2023-04-15T19:56:07.013Z,8.84
2023-04-15T19:58:33.416Z,8.86
2023-04-15T20:01:01.333Z,8.73
2023-04-15T20:03:27.898Z,8.77
2023-04-15T20:05:54.414Z,8.79
2023-04-15T20:08:20.823Z,8.79
2023-04-15T20:10:47.167Z,8.83
2023-04-15T20:13:13.561Z,8.84
2023-04-15T20:15:39.948Z,8.95
2023-04-15T20:18:06.277Z,8.89
2023-04-15T20:20:34.401Z,8.84
2023-04-15T20:23:00.736Z,8.85
2023-04-15T20:25:27.112Z,8.89
2023-04-15T20:27:53.537Z,8.80
2023-04-15T20:30:20.091Z,8.91
2023-04-15T20:32:46.514Z,8.90
2023-04-15T20:35:12.917Z,8.86
2023-04-15T20:37:40.265Z,8.85
2023-04-15T20:40:07.203Z,8.85
2023-04-15T20:42:34.340Z,8.75
2023-04-15T20:45:01.244Z,8.84
2023-04-15T20:47:27.791Z,8.80
2023-04-15T20:49:54.235Z,8.82
2023-04-15T20:52:20.668Z,8.76
2023-04-15T20:54:47.188Z,8.81
2023-04-15T20:57:13.490Z,8.89
2023-04-15T20:59:39.780Z,8.88
2023-04-15T21:02:06.675Z,8.86
2023-04-15T21:04:33.067Z,8.77
2023-04-15T21:06:59.352Z,8.87
2023-04-15T21:09:25.732Z,8.87
2023-04-15T21:14:21.399Z,8.86
2023-04-15T21:16:47.952Z,8.88
2023-04-15T21:19:14.501Z,8.94
2023-04-15T21:21:40.896Z,8.88
2023-04-15T21:24:07.773Z,8.91
2023-04-15T21:26:35.735Z,8.80
2023-04-15T21:29:02.603Z,8.93
2023-04-15T21:31:29.097Z,8.88
2023-04-15T21:33:55.436Z,8.88
2023-04-15T21:36:21.782Z,8.88
2023-04-15T21:38:48.146Z,8.82
2023-04-15T21:41:14.494Z,8.80
2023-04-15T21:43:40.781Z,8.79
2023-04-15T21:46:23.204Z,8.74
2023-04-15T21:48:53.331Z,8.76
2023-04-15T21:51:19.814Z,8.77
2023-04-15T21:53:46.244Z,8.88
2023-04-15T21:56:12.610Z,8.85
2023-04-15T21:58:38.991Z,8.85
2023-04-15T22:01:05.495Z,8.84
2023-04-15T22:03:34.052Z,8.80
2023-04-15T22:06:04.172Z,8.85
2023-04-15T22:08:38.254Z,8.81
2023-04-15T22:11:20.870Z,8.81
2023-04-15T22:13:47.302Z,8.75
2023-04-15T22:16:13.883Z,8.80
2023-04-15T22:18:40.218Z,8.77
2023-04-15T22:21:06.575Z,8.83
2023-04-15T22:23:32.956Z,8.76
2023-04-15T22:25:59.603Z,8.83
2023-04-15T22:28:25.919Z,8.75
2023-04-15T22:30:54.481Z,8.76
2023-04-15T22:33:20.963Z,8.71
2023-04-15T22:35:47.331Z,8.74
2023-04-15T22:38:13.684Z,8.73
2023-04-15T22:40:40.047Z,8.77
2023-04-15T22:43:06.403Z,8.82
2023-04-15T22:45:32.781Z,8.73
2023-04-15T22:47:59.228Z,8.84
2023-04-15T22:50:25.642Z,8.77
2023-04-15T22:52:51.974Z,8.77
2023-04-15T22:55:18.471Z,8.88
2023-04-15T22:57:44.869Z,8.87
2023-04-15T23:00:11.691Z,8.79
2023-04-15T23:02:38.150Z,8.86
2023-04-15T23:05:12.036Z,8.79
2023-04-15T23:07:39.065Z,8.84
2023-04-15T23:10:06.064Z,8.85
2023-04-15T23:12:32.435Z,8.78
2023-04-15T23:14:58.788Z,8.74
2023-04-15T23:17:25.308Z,8.73
2023-04-15T23:19:51.829Z,8.76
2023-04-15T23:22:18.362Z,8.80
2023-04-15T23:24:44.733Z,8.81
2023-04-15T23:27:11.074Z,8.84
2023-04-15T23:29:37.476Z,8.74
2023-04-15T23:32:03.985Z,8.68
2023-04-15T23:34:30.386Z,8.76
2023-04-15T23:36:56.762Z,8.79
2023-04-15T23:39:23.184Z,8.73
2023-04-15T23:41:49.542Z,8.75
2023-04-15T23:44:15.894Z,8.73
2023-04-15T23:46:42.219Z,8.71
2023-04-15T23:49:08.691Z,8.65
2023-04-15T23:51:35.221Z,8.63
2023-04-15T23:54:01.552Z,8.69
2023-04-15T23:56:27.885Z,8.73
2023-04-15T23:58:54.279Z,8.73
